sensor_id;sensor_type;location;lat;lon;timestamp;P1;P2;P0
71872;PMS5003;59745;52.924;-2.388;2022-10-03T00:05:30;5;5;
71872;PMS5003;59745;52.924;-2.388;2022-10-03T00:07:55;3;3;
71872;PMS5003;59745;52.924;-2.388;2022-10-03T00:10:19;6;5;
71872;PMS5003;59745;52.924;-2.388;2022-10-03T00:12:46;6;5;
71872;PMS5003;59745;52.924;-2.388;2022-10-03T00:15:08;8;5;
71872;PMS5003;59745;52.924;-2.388;2022-10-03T00:17:37;5;4;
71872;PMS5003;59745;52.924;-2.388;2022-10-03T00:19:59;7;4;
71872;PMS5003;59745;52.924;-2.388;2022-10-03T00:22:25;6;5;
71872;PMS5003;59745;52.924;-2.388;2022-10-03T00:24:53;5;4;
71872;PMS5003;59745;52.924;-2.388;2022-10-03T00:27:15;3;3;
71872;PMS5003;59745;52.924;-2.388;2022-10-03T00:29:43;4;4;
71872;PMS5003;59745;52.924;-2.388;2022-10-03T00:32:06;6;4;
71872;PMS5003;59745;52.924;-2.388;2022-10-03T00:34:33;3;3;
71872;PMS5003;59745;52.924;-2.388;2022-10-03T00:36:59;5;3;
71872;PMS5003;59745;52.924;-2.388;2022-10-03T00:39:25;4;3;
71872;PMS5003;59745;52.924;-2.388;2022-10-03T00:41:49;7;5;
71872;PMS5003;59745;52.924;-2.388;2022-10-03T00:44:16;5;5;
71872;PMS5003;59745;52.924;-2.388;2022-10-03T00:46:45;7;4;
71872;PMS5003;59745;52.924;-2.388;2022-10-03T00:49:07;7;5;
71872;PMS5003;59745;52.924;-2.388;2022-10-03T00:51:31;4;3;
71872;PMS5003;59745;52.924;-2.388;2022-10-03T00:53:55;4;4;
71872;PMS5003;59745;52.924;-2.388;2022-10-03T00:56:22;4;3;
71872;PMS5003;59745;52.924;-2.388;2022-10-03T00:58:47;4;4;
71872;PMS5003;59745;52.924;-2.388;2022-10-03T01:03:35;6;4;
71872;PMS5003;59745;52.924;-2.388;2022-10-03T01:06:00;2;2;
71872;PMS5003;59745;52.924;-2.388;2022-10-03T01:08:33;6;4;
71872;PMS5003;59745;52.924;-2.388;2022-10-03T01:10:50;6;4;
71872;PMS5003;59745;52.924;-2.388;2022-10-03T01:13:17;5;4;
71872;PMS5003;59745;52.924;-2.388;2022-10-03T01:15:42;4;3;
71872;PMS5003;59745;52.924;-2.388;2022-10-03T01:18:08;3;3;
71872;PMS5003;59745;52.924;-2.388;2022-10-03T01:20:31;7;5;
71872;PMS5003;59745;52.924;-2.388;2022-10-03T01:23:05;6;4;
71872;PMS5003;59745;52.924;-2.388;2022-10-03T01:25:25;3;3;
71872;PMS5003;59745;52.924;-2.388;2022-10-03T01:27:47;5;5;
71872;PMS5003;59745;52.924;-2.388;2022-10-03T01:30:11;6;6;
71872;PMS5003;59745;52.924;-2.388;2022-10-03T01:32:39;4;4;
71872;PMS5003;59745;52.924;-2.388;2022-10-03T01:35:05;5;5;
71872;PMS5003;59745;52.924;-2.388;2022-10-03T01:37:29;5;5;
71872;PMS5003;59745;52.924;-2.388;2022-10-03T01:39:54;6;5;
71872;PMS5003;59745;52.924;-2.388;2022-10-03T01:42:19;6;5;
71872;PMS5003;59745;52.924;-2.388;2022-10-03T01:44:47;6;5;
71872;PMS5003;59745;52.924;-2.388;2022-10-03T01:47:13;6;5;
71872;PMS5003;59745;52.924;-2.388;2022-10-03T01:49:35;10;8;
71872;PMS5003;59745;52.924;-2.388;2022-10-03T01:52:02;8;6;
71872;PMS5003;59745;52.924;-2.388;2022-10-03T01:54:28;9;8;
71872;PMS5003;59745;52.924;-2.388;2022-10-03T01:56:51;11;7;
71872;PMS5003;59745;52.924;-2.388;2022-10-03T01:59:16;13;10;
